Time;durP1;ratioP1;P1;durP2;ratioP2;P2;SDS_P1;SDS_P2;PMS_P1;PMS_P2;Temp;Humidity;BMP_temperature;BMP_pressure;BME280_temperature;BME280_humidity;BME280_pressure;Samples;Min_cycle;Max_cycle;Signal;HPM_P1;HPM_P2
2022/03/19 00:01:34;;;;;;;35.92;22.30;;;;;;;;;;5010324;28;20497;-74
2022/03/19 00:04:01;;;;;;;31.38;21.73;;;;;;;;;;5010835;28;20441;-76
2022/03/19 00:06:29;;;;;;;35.50;23.10;;;;;;;;;;5011087;28;20033;-75
2022/03/19 00:08:57;;;;;;;41.78;23.75;;;;;;;;;;5012397;28;20049;-74
2022/03/19 00:11:24;;;;;;;34.15;22.25;;;;;;;;;;5010151;28;20516;-74
2022/03/19 00:13:52;;;;;;;30.48;20.67;;;;;;;;;;5009937;28;20056;-76
2022/03/19 00:16:21;;;;;;;29.98;22.80;;;;;;;;;;5012065;28;20041;-76
2022/03/19 00:18:49;;;;;;;27.38;19.85;;;;;;;;;;5013215;28;20575;-74
2022/03/19 00:21:16;;;;;;;22.75;16.83;;;;;;;;;;5010869;28;20132;-76
2022/03/19 00:23:44;;;;;;;24.55;17.95;;;;;;;;;;4995163;28;20072;-75
2022/03/19 00:26:11;;;;;;;23.70;18.25;;;;;;;;;;5010095;28;20505;-75
2022/03/19 00:28:40;;;;;;;26.98;21.15;;;;;;;;;;5007347;28;20358;-74
2022/03/19 00:31:08;;;;;;;25.58;20.40;;;;;;;;;;5009594;28;20391;-73
2022/03/19 00:33:35;;;;;;;25.58;19.20;;;;;;;;;;5008930;28;20033;-74
2022/03/19 00:36:03;;;;;;;26.35;20.70;;;;;;;;;;5009073;28;20051;-75
2022/03/19 00:38:30;;;;;;;25.98;19.02;;;;;;;;;;5007230;28;20057;-76
2022/03/19 00:40:58;;;;;;;25.35;20.10;;;;;;;;;;5013209;28;20046;-75
2022/03/19 00:43:27;;;;;;;29.58;18.92;;;;;;;;;;5013145;28;20053;-76
2022/03/19 00:45:55;;;;;;;29.92;22.83;;;;;;;;;;5009768;28;20057;-77
2022/03/19 00:48:22;;;;;;;22.48;16.85;;;;;;;;;;5008657;28;20052;-77
2022/03/19 00:50:49;;;;;;;24.67;18.17;;;;;;;;;;5015756;28;20041;-74
2022/03/19 00:53:17;;;;;;;25.45;18.50;;;;;;;;;;5026578;28;20050;-74
2022/03/19 00:55:50;;;;;;;26.58;19.00;;;;;;;;;;5017305;28;20561;-74
2022/03/19 00:58:18;;;;;;;22.67;18.27;;;;;;;;;;5029756;28;20132;-76
2022/03/19 01:00:45;;;;;;;30.33;21.20;;;;;;;;;;5027580;28;20501;-73
2022/03/19 01:03:13;;;;;;;29.55;22.17;;;;;;;;;;5028788;28;20037;-74
2022/03/19 01:05:42;;;;;;;28.23;20.10;;;;;;;;;;5028290;28;20494;-73
2022/03/19 01:08:11;;;;;;;28.45;21.10;;;;;;;;;;5028721;28;20037;-74
2022/03/19 01:10:39;;;;;;;25.17;20.80;;;;;;;;;;5022531;28;20041;-74
2022/03/19 01:13:06;;;;;;;30.75;22.52;;;;;;;;;;5017472;28;20269;-75
2022/03/19 01:15:34;;;;;;;28.05;20.33;;;;;;;;;;5026608;28;20065;-74
2022/03/19 01:18:02;;;;;;;26.23;20.00;;;;;;;;;;5028186;28;20041;-76
2022/03/19 01:20:30;;;;;;;25.02;18.90;;;;;;;;;;5009237;28;20057;-75
2022/03/19 01:22:57;;;;;;;23.75;19.02;;;;;;;;;;5025722;28;20084;-74
2022/03/19 01:25:26;;;;;;;26.13;19.73;;;;;;;;;;5026981;28;20050;-76
2022/03/19 01:27:53;;;;;;;25.27;19.02;;;;;;;;;;5026503;28;20044;-74
2022/03/19 01:30:22;;;;;;;26.17;20.55;;;;;;;;;;5022245;28;20124;-73
2022/03/19 01:32:50;;;;;;;25.63;18.17;;;;;;;;;;5021870;28;20107;-75
2022/03/19 01:35:18;;;;;;;26.00;18.40;;;;;;;;;;5027100;28;20037;-76
2022/03/19 01:37:46;;;;;;;25.48;20.42;;;;;;;;;;5028110;28;20114;-76
2022/03/19 01:40:14;;;;;;;26.75;19.50;;;;;;;;;;5019665;28;20068;-74
2022/03/19 01:42:42;;;;;;;23.63;17.98;;;;;;;;;;5024634;28;20060;-76
2022/03/19 01:45:11;;;;;;;29.38;20.13;;;;;;;;;;5022470;28;20037;-74
2022/03/19 01:47:38;;;;;;;30.58;22.23;;;;;;;;;;5026167;28;20040;-76
2022/03/19 01:50:07;;;;;;;29.83;21.00;;;;;;;;;;5022851;28;20041;-74
2022/03/19 01:52:34;;;;;;;31.52;21.70;;;;;;;;;;5028721;28;20049;-74
2022/03/19 01:55:02;;;;;;;34.65;25.17;;;;;;;;;;5027636;28;20083;-74
2022/03/19 01:57:34;;;;;;;30.38;23.70;;;;;;;;;;5027739;28;20548;-74
2022/03/19 02:00:02;;;;;;;27.38;20.00;;;;;;;;;;5028120;28;20140;-74
2022/03/19 02:02:38;;;;;;;28.50;20.98;;;;;;;;;;5025282;28;20049;-74
2022/03/19 02:05:07;;;;;;;25.55;19.25;;;;;;;;;;5031806;28;20087;-74
2022/03/19 02:07:34;;;;;;;27.10;19.50;;;;;;;;;;5031850;28;20041;-74
2022/03/19 02:10:02;;;;;;;31.10;21.90;;;;;;;;;;5031458;28;20049;-76
2022/03/19 02:12:29;;;;;;;25.88;19.75;;;;;;;;;;5014195;28;20042;-74
2022/03/19 02:14:57;;;;;;;27.65;20.75;;;;;;;;;;5030240;28;20112;-75
2022/03/19 02:17:24;;;;;;;36.05;25.80;;;;;;;;;;5027627;28;20052;-74
2022/03/19 02:19:53;;;;;;;32.88;25.50;;;;;;;;;;5029428;28;20490;-75
2022/03/19 02:22:22;;;;;;;31.58;22.17;;;;;;;;;;5031749;28;20601;-74
2022/03/19 02:27:36;;;;;;;30.73;21.52;;;;;;;;;;5031614;28;20509;-74
2022/03/19 02:30:04;;;;;;;27.30;18.75;;;;;;;;;;5030654;28;20034;-74
2022/03/19 02:32:34;;;;;;;27.30;18.65;;;;;;;;;;5031508;28;20136;-74
2022/03/19 02:35:01;;;;;;;29.77;21.52;;;;;;;;;;5031635;28;20068;-74
2022/03/19 02:37:39;;;;;;;30.70;21.75;;;;;;;;;;5031145;28;20607;-75
2022/03/19 02:40:08;;;;;;;32.13;22.52;;;;;;;;;;5030453;28;20451;-74
2022/03/19 02:42:41;;;;;;;34.67;23.55;;;;;;;;;;5031823;28;20095;-74
2022/03/19 02:45:09;;;;;;;35.97;22.98;;;;;;;;;;5031062;28;20060;-73
2022/03/19 02:47:57;;;;;;;32.90;22.17;;;;;;;;;;5031370;28;20041;-74
2022/03/19 02:50:29;;;;;;;37.47;24.02;;;;;;;;;;5031504;28;20056;-74
2022/03/19 02:52:57;;;;;;;32.42;23.20;;;;;;;;;;5030962;28;20045;-74
2022/03/19 02:55:25;;;;;;;38.90;27.27;;;;;;;;;;5029267;28;20498;-74
2022/03/19 02:57:54;;;;;;;33.03;22.15;;;;;;;;;;5030225;28;20123;-74
2022/03/19 03:00:23;;;;;;;34.35;23.30;;;;;;;;;;5031243;28;20042;-75
2022/03/19 03:02:50;;;;;;;30.50;21.63;;;;;;;;;;5031688;28;20045;-76
2022/03/19 03:05:18;;;;;;;36.53;24.10;;;;;;;;;;5026010;28;20052;-75
2022/03/19 03:07:45;;;;;;;34.45;22.88;;;;;;;;;;5011289;28;20038;-74
2022/03/19 03:10:15;;;;;;;35.17;23.50;;;;;;;;;;5010678;28;20518;-74
2022/03/19 03:12:42;;;;;;;39.38;25.30;;;;;;;;;;5031179;28;20569;-74
2022/03/19 03:15:10;;;;;;;41.67;28.55;;;;;;;;;;5008665;28;20068;-74
2022/03/19 03:17:40;;;;;;;43.40;28.00;;;;;;;;;;5031106;28;20052;-75
2022/03/19 03:20:08;;;;;;;46.15;32.17;;;;;;;;;;5019886;28;20049;-75
2022/03/19 03:22:37;;;;;;;42.08;30.50;;;;;;;;;;5018046;28;20042;-74
2022/03/19 03:25:06;;;;;;;40.50;26.05;;;;;;;;;;5010771;28;20398;-74
2022/03/19 03:27:34;;;;;;;40.80;27.40;;;;;;;;;;5030179;28;20513;-74
2022/03/19 03:30:01;;;;;;;41.00;27.38;;;;;;;;;;5011198;28;20069;-74
2022/03/19 03:32:28;;;;;;;43.72;28.45;;;;;;;;;;5011623;28;20057;-75
2022/03/19 03:34:56;;;;;;;43.10;26.52;;;;;;;;;;5009011;28;20073;-75
2022/03/19 03:37:24;;;;;;;44.45;27.98;;;;;;;;;;5029228;28;20045;-74
2022/03/19 03:39:51;;;;;;;45.47;31.15;;;;;;;;;;5027482;28;20111;-74
2022/03/19 03:42:18;;;;;;;37.53;25.90;;;;;;;;;;5030102;28;20410;-77
2022/03/19 03:44:46;;;;;;;40.20;25.65;;;;;;;;;;5010442;28;20132;-75
2022/03/19 03:47:13;;;;;;;35.97;24.95;;;;;;;;;;5026991;28;20037;-75
2022/03/19 03:49:41;;;;;;;48.53;31.73;;;;;;;;;;5030068;28;20069;-74
2022/03/19 03:52:08;;;;;;;39.88;25.48;;;;;;;;;;5019049;28;20049;-75
2022/03/19 03:54:36;;;;;;;39.78;27.00;;;;;;;;;;5027862;28;20128;-75
2022/03/19 03:57:03;;;;;;;39.53;26.35;;;;;;;;;;5029048;28;20044;-74
2022/03/19 03:59:30;;;;;;;38.20;25.70;;;;;;;;;;5030647;28;20593;-74
2022/03/19 04:01:58;;;;;;;42.50;26.85;;;;;;;;;;5042218;22;20141;-86
2022/03/19 04:04:26;;;;;;;44.58;30.13;;;;;;;;;;5013402;28;20048;-86
2022/03/19 04:06:53;;;;;;;36.67;23.85;;;;;;;;;;5024795;28;20555;-84
2022/03/19 04:09:21;;;;;;;35.15;24.23;;;;;;;;;;5033773;28;20429;-85
2022/03/19 04:11:48;;;;;;;36.53;25.83;;;;;;;;;;5019309;28;20038;-85
2022/03/19 04:14:16;;;;;;;36.15;24.52;;;;;;;;;;5011290;28;20038;-85
2022/03/19 04:16:43;;;;;;;36.83;24.48;;;;;;;;;;5011418;28;20492;-85
2022/03/19 04:19:10;;;;;;;40.60;26.55;;;;;;;;;;5011456;28;20077;-87
2022/03/19 04:21:42;;;;;;;37.58;24.92;;;;;;;;;;5008265;28;20856;-85
2022/03/19 04:24:10;;;;;;;36.97;24.52;;;;;;;;;;5013475;28;20504;-85
2022/03/19 04:26:37;;;;;;;34.97;24.52;;;;;;;;;;5009371;28;20056;-85
2022/03/19 04:29:05;;;;;;;35.30;23.48;;;;;;;;;;5020361;28;20144;-86
2022/03/19 04:31:32;;;;;;;43.05;26.30;;;;;;;;;;5008408;28;20050;-85
2022/03/19 04:34:00;;;;;;;41.58;26.15;;;;;;;;;;5017360;28;20069;-86
2022/03/19 04:36:30;;;;;;;37.97;24.92;;;;;;;;;;5022595;28;20042;-84
2022/03/19 04:38:58;;;;;;;37.15;25.42;;;;;;;;;;5049308;28;20080;-84
2022/03/19 04:41:26;;;;;;;36.92;24.75;;;;;;;;;;5021993;28;20045;-84
2022/03/19 04:43:53;;;;;;;41.33;26.58;;;;;;;;;;5015000;28;20054;-84
2022/03/19 04:46:20;;;;;;;42.20;26.05;;;;;;;;;;5010393;28;20053;-86
2022/03/19 04:48:48;;;;;;;47.35;30.85;;;;;;;;;;5012092;28;20042;-84
2022/03/19 04:51:17;;;;;;;44.13;30.67;;;;;;;;;;5018407;28;20045;-84
2022/03/19 04:53:50;;;;;;;40.83;27.85;;;;;;;;;;5010547;28;20050;-85
2022/03/19 04:56:19;;;;;;;38.40;26.70;;;;;;;;;;5015061;28;20529;-85
2022/03/19 04:58:46;;;;;;;37.25;28.00;;;;;;;;;;5017994;28;20073;-84
2022/03/19 05:01:16;;;;;;;39.70;26.33;;;;;;;;;;5017111;28;20116;-85
2022/03/19 05:03:44;;;;;;;36.40;23.10;;;;;;;;;;5018757;28;20046;-85
2022/03/19 05:06:11;;;;;;;39.70;25.75;;;;;;;;;;5016958;28;20037;-84
2022/03/19 05:08:39;;;;;;;41.90;26.52;;;;;;;;;;5019489;28;20029;-84
2022/03/19 05:11:17;;;;;;;46.50;29.75;;;;;;;;;;5019235;28;20040;-85
2022/03/19 05:13:45;;;;;;;39.20;24.50;;;;;;;;;;5015345;28;20037;-84
2022/03/19 05:16:12;;;;;;;34.80;25.30;;;;;;;;;;5017681;28;20060;-86
2022/03/19 05:18:40;;;;;;;37.35;25.83;;;;;;;;;;5021557;28;20473;-85
2022/03/19 05:21:08;;;;;;;34.83;24.80;;;;;;;;;;5018832;28;20041;-84
2022/03/19 05:23:35;;;;;;;41.22;26.75;;;;;;;;;;5018206;28;20046;-85
2022/03/19 05:26:03;;;;;;;35.10;24.33;;;;;;;;;;5018393;28;20121;-84
2022/03/19 05:28:30;;;;;;;34.88;24.83;;;;;;;;;;5011718;28;20537;-84
2022/03/19 05:31:17;;;;;;;36.70;24.52;;;;;;;;;;5011767;28;20555;-87
2022/03/19 05:36:31;;;;;;;32.95;23.42;;;;;;;;;;5008257;28;20034;-84
2022/03/19 05:38:59;;;;;;;36.63;23.23;;;;;;;;;;5016234;28;20069;-84
2022/03/19 05:41:27;;;;;;;33.08;22.75;;;;;;;;;;5017984;28;20391;-84
2022/03/19 05:43:55;;;;;;;34.63;23.48;;;;;;;;;;5018722;28;20077;-83
2022/03/19 05:46:23;;;;;;;37.55;24.45;;;;;;;;;;5015264;28;20520;-83
2022/03/19 05:48:50;;;;;;;36.60;23.83;;;;;;;;;;5012126;28;20681;-83
2022/03/19 05:51:17;;;;;;;38.55;25.08;;;;;;;;;;5005612;28;20050;-83
2022/03/19 05:53:45;;;;;;;31.98;21.30;;;;;;;;;;5024767;28;20120;-84
2022/03/19 05:56:13;;;;;;;31.40;21.30;;;;;;;;;;5009062;28;20034;-83
2022/03/19 05:58:40;;;;;;;31.58;20.98;;;;;;;;;;5012424;28;20099;-83
2022/03/19 06:01:08;;;;;;;32.30;21.80;;;;;;;;;;5012720;28;20050;-83
2022/03/19 06:03:35;;;;;;;38.85;24.30;;;;;;;;;;5011984;28;20052;-83
2022/03/19 06:06:04;;;;;;;33.35;23.95;;;;;;;;;;5012333;28;20049;-83
2022/03/19 06:08:32;;;;;;;34.63;20.77;;;;;;;;;;5011566;28;20466;-82
2022/03/19 06:10:59;;;;;;;33.28;22.73;;;;;;;;;;5011821;28;20045;-83
2022/03/19 06:13:27;;;;;;;29.27;21.30;;;;;;;;;;5011070;28;20105;-82
2022/03/19 06:15:54;;;;;;;37.22;25.35;;;;;;;;;;5011950;28;20489;-82
2022/03/19 06:18:21;;;;;;;34.10;22.67;;;;;;;;;;5012109;28;20517;-83
2022/03/19 06:20:49;;;;;;;34.65;24.55;;;;;;;;;;5017559;28;20073;-84
2022/03/19 06:23:16;;;;;;;33.85;22.88;;;;;;;;;;5020718;28;20034;-82
2022/03/19 06:25:43;;;;;;;34.13;23.35;;;;;;;;;;5005019;28;20108;-83
2022/03/19 06:28:10;;;;;;;37.47;24.45;;;;;;;;;;5025128;28;20038;-82
2022/03/19 06:30:38;;;;;;;44.35;28.95;;;;;;;;;;5024155;28;20049;-82
2022/03/19 06:33:06;;;;;;;49.38;30.90;;;;;;;;;;5020129;28;20068;-83
2022/03/19 06:38:20;;;;;;;42.17;27.42;;;;;;;;;;5012335;28;20069;-84
2022/03/19 06:40:48;;;;;;;42.90;27.95;;;;;;;;;;5013246;28;20045;-84
2022/03/19 06:43:15;;;;;;;32.30;20.33;;;;;;;;;;5013725;28;20470;-85
2022/03/19 06:45:43;;;;;;;40.05;27.17;;;;;;;;;;5011387;28;20485;-83
2022/03/19 06:48:10;;;;;;;36.63;22.65;;;;;;;;;;5010470;28;20037;-84
2022/03/19 06:50:37;;;;;;;37.13;27.23;;;;;;;;;;5014335;28;20096;-83
2022/03/19 06:53:05;;;;;;;46.00;31.80;;;;;;;;;;5012917;28;20464;-83
2022/03/19 06:55:32;;;;;;;36.35;25.92;;;;;;;;;;5010535;28;20525;-83
2022/03/19 06:58:00;;;;;;;45.65;30.15;;;;;;;;;;5011479;28;20038;-84
2022/03/19 07:00:27;;;;;;;45.40;29.40;;;;;;;;;;5010316;28;20042;-83
2022/03/19 07:02:55;;;;;;;45.22;30.92;;;;;;;;;;5014763;28;20045;-83
2022/03/19 07:05:27;;;;;;;46.35;30.65;;;;;;;;;;5012005;28;20042;-84
2022/03/19 07:07:56;;;;;;;35.97;26.80;;;;;;;;;;5026854;28;20043;-84
2022/03/19 07:10:24;;;;;;;38.78;26.48;;;;;;;;;;5018824;28;20052;-83
2022/03/19 07:12:52;;;;;;;38.08;27.60;;;;;;;;;;5014293;28;20030;-86
2022/03/19 07:15:20;;;;;;;41.78;29.05;;;;;;;;;;5012068;28;20038;-84
2022/03/19 07:17:50;;;;;;;42.95;28.90;;;;;;;;;;4994219;28;20042;-83
2022/03/19 07:20:19;;;;;;;36.67;27.48;;;;;;;;;;5011597;28;20042;-84
2022/03/19 07:22:54;;;;;;;37.53;28.23;;;;;;;;;;4993978;28;20049;-84
2022/03/19 07:25:22;;;;;;;38.10;28.33;;;;;;;;;;5011597;28;20046;-83
2022/03/19 07:27:50;;;;;;;37.78;27.00;;;;;;;;;;5010234;28;20509;-83
2022/03/19 07:30:18;;;;;;;34.72;26.08;;;;;;;;;;5010428;28;20045;-84
2022/03/19 07:32:46;;;;;;;37.88;27.75;;;;;;;;;;5008009;28;20092;-83
2022/03/19 07:35:14;;;;;;;37.05;25.17;;;;;;;;;;5009732;28;20536;-84
2022/03/19 07:37:44;;;;;;;35.25;25.77;;;;;;;;;;5009554;28;20122;-83
2022/03/19 07:40:13;;;;;;;33.92;24.60;;;;;;;;;;5009717;28;20068;-83
2022/03/19 07:42:41;;;;;;;36.05;26.50;;;;;;;;;;4994274;28;20045;-83
2022/03/19 07:45:09;;;;;;;31.50;25.08;;;;;;;;;;5015431;23;20136;-78
2022/03/19 07:47:36;;;;;;;32.88;24.58;;;;;;;;;;5017101;28;20038;-78
2022/03/19 07:50:04;;;;;;;34.00;25.80;;;;;;;;;;5021766;28;20091;-78
2022/03/19 07:52:33;;;;;;;34.33;24.13;;;;;;;;;;5017727;28;20092;-78
2022/03/19 07:55:00;;;;;;;33.10;26.02;;;;;;;;;;5007130;28;20145;-78
2022/03/19 07:57:27;;;;;;;34.90;26.58;;;;;;;;;;5011288;28;20038;-79
2022/03/19 07:59:56;;;;;;;32.08;25.10;;;;;;;;;;5011540;28;20730;-78
2022/03/19 08:02:24;;;;;;;33.30;28.58;;;;;;;;;;5011821;28;20057;-77
2022/03/19 08:04:51;;;;;;;29.80;23.10;;;;;;;;;;5012383;28;20046;-77
2022/03/19 08:07:19;;;;;;;23.20;19.02;;;;;;;;;;5013257;28;20054;-77
2022/03/19 08:09:47;;;;;;;18.85;16.02;;;;;;;;;;5013307;28;20524;-78
2022/03/19 08:12:14;;;;;;;22.45;17.08;;;;;;;;;;4998015;28;20072;-77
2022/03/19 08:14:42;;;;;;;23.58;16.55;;;;;;;;;;5028245;28;20038;-77
2022/03/19 08:17:10;;;;;;;17.85;13.50;;;;;;;;;;5042852;28;20033;-79
2022/03/19 08:19:38;;;;;;;15.50;11.88;;;;;;;;;;5047999;28;20046;-78
2022/03/19 08:22:26;;;;;;;13.30;10.60;;;;;;;;;;5029562;28;20045;-79
2022/03/19 08:24:53;;;;;;;12.68;10.25;;;;;;;;;;5022648;28;20069;-77
2022/03/19 08:27:23;;;;;;;10.40;8.82;;;;;;;;;;5009797;28;20046;-76
2022/03/19 08:29:51;;;;;;;9.95;8.43;;;;;;;;;;5028543;28;20057;-78
2022/03/19 08:32:18;;;;;;;10.50;8.75;;;;;;;;;;5038865;28;20037;-75
2022/03/19 08:34:45;;;;;;;9.77;8.40;;;;;;;;;;5034935;28;20065;-77
2022/03/19 08:37:13;;;;;;;11.63;8.77;;;;;;;;;;5027106;28;20069;-76
2022/03/19 08:42:26;;;;;;;8.57;7.53;;;;;;;;;;5025020;28;20206;-76
2022/03/19 08:44:56;;;;;;;8.85;7.32;;;;;;;;;;5011217;28;20034;-77
2022/03/19 08:47:23;;;;;;;9.27;7.40;;;;;;;;;;5011619;28;20065;-78
2022/03/19 08:49:50;;;;;;;10.05;7.43;;;;;;;;;;5012722;28;20053;-78
2022/03/19 08:52:18;;;;;;;11.98;7.70;;;;;;;;;;5013899;28;20052;-79
2022/03/19 08:54:45;;;;;;;10.35;8.38;;;;;;;;;;5015569;28;20038;-78
2022/03/19 08:57:13;;;;;;;10.88;7.07;;;;;;;;;;5010775;28;20042;-79
2022/03/19 08:59:43;;;;;;;7.15;6.15;;;;;;;;;;5011424;28;20058;-79
2022/03/19 09:02:30;;;;;;;8.52;7.07;;;;;;;;;;5009532;28;20063;-78
2022/03/19 09:05:00;;;;;;;9.50;7.55;;;;;;;;;;5011599;28;20046;-78
2022/03/19 09:07:28;;;;;;;9.23;6.95;;;;;;;;;;5010332;28;20053;-78
2022/03/19 09:09:55;;;;;;;8.32;6.85;;;;;;;;;;5010503;28;20485;-79
2022/03/19 09:12:33;;;;;;;7.90;6.97;;;;;;;;;;5010163;28;20133;-78
2022/03/19 09:15:01;;;;;;;9.10;7.20;;;;;;;;;;5012535;28;20045;-78
2022/03/19 09:17:29;;;;;;;8.80;7.20;;;;;;;;;;5013349;28;20504;-79
2022/03/19 09:19:56;;;;;;;10.10;7.63;;;;;;;;;;5014274;28;20621;-78
2022/03/19 09:22:24;;;;;;;9.35;8.32;;;;;;;;;;5014041;28;20133;-79
2022/03/19 09:24:51;;;;;;;7.93;7.10;;;;;;;;;;5015995;28;20085;-81
2022/03/19 09:27:19;;;;;;;9.50;7.22;;;;;;;;;;5020994;28;20042;-78
2022/03/19 09:29:46;;;;;;;8.25;7.45;;;;;;;;;;5021966;28;20124;-80
2022/03/19 09:32:14;;;;;;;7.88;7.07;;;;;;;;;;5020765;28;20034;-78
2022/03/19 09:34:41;;;;;;;9.32;7.88;;;;;;;;;;5003079;28;20106;-78
2022/03/19 09:37:08;;;;;;;10.00;8.38;;;;;;;;;;5015407;28;20483;-78
2022/03/19 09:39:36;;;;;;;9.43;8.43;;;;;;;;;;5023568;28;20037;-79
2022/03/19 09:42:04;;;;;;;9.70;8.70;;;;;;;;;;5021937;28;20428;-77
2022/03/19 09:44:33;;;;;;;9.55;8.55;;;;;;;;;;5019712;28;20056;-77
2022/03/19 09:47:00;;;;;;;10.10;9.10;;;;;;;;;;5020120;28;20472;-79
2022/03/19 09:49:27;;;;;;;9.85;8.82;;;;;;;;;;5019743;28;20041;-79
2022/03/19 09:51:55;;;;;;;10.13;8.90;;;;;;;;;;5019722;28;20439;-79
2022/03/19 09:54:23;;;;;;;11.02;8.98;;;;;;;;;;5029008;28;20041;-78
2022/03/19 09:56:50;;;;;;;12.02;8.55;;;;;;;;;;5018367;28;20492;-78
2022/03/19 09:59:18;;;;;;;10.93;9.20;;;;;;;;;;5015901;28;20052;-79
2022/03/19 10:01:48;;;;;;;12.68;9.68;;;;;;;;;;5012944;28;20129;-78
2022/03/19 10:04:19;;;;;;;11.20;9.52;;;;;;;;;;5013547;28;20046;-77
2022/03/19 10:09:40;;;;;;;11.50;10.30;;;;;;;;;;5023017;28;20046;-78
2022/03/19 10:12:12;;;;;;;15.13;10.70;;;;;;;;;;5020845;28;20485;-78
2022/03/19 10:14:40;;;;;;;13.38;10.77;;;;;;;;;;5019494;28;20493;-78
2022/03/19 10:17:08;;;;;;;15.50;11.43;;;;;;;;;;5015519;28;20094;-79
2022/03/19 10:19:49;;;;;;;13.05;10.63;;;;;;;;;;5019023;28;20045;-79
2022/03/19 10:22:23;;;;;;;14.68;11.68;;;;;;;;;;5015874;28;20046;-79
2022/03/19 10:24:55;;;;;;;13.05;11.50;;;;;;;;;;5018417;28;20713;-80
2022/03/19 10:27:22;;;;;;;;;;;;;;;;;;5001131;28;20052;-79
2022/03/19 10:30:01;;;;;;;11.55;10.15;;;;;;;;;;5009710;28;19925;-78
2022/03/19 10:32:29;;;;;;;12.10;10.15;;;;;;;;;;5017790;28;20451;-80
2022/03/19 10:34:56;;;;;;;17.05;13.30;;;;;;;;;;5022639;28;20091;-77
2022/03/19 10:37:41;;;;;;;14.55;12.02;;;;;;;;;;5019081;28;20037;-79
2022/03/19 10:40:09;;;;;;;14.20;11.82;;;;;;;;;;4999062;28;20419;-79
2022/03/19 10:42:40;;;;;;;20.13;13.48;;;;;;;;;;5021592;28;20095;-81
2022/03/19 10:45:12;;;;;;;20.03;14.50;;;;;;;;;;5019616;28;20041;-78
2022/03/19 10:47:41;;;;;;;19.75;14.63;;;;;;;;;;5022809;28;20173;-80
2022/03/19 10:50:08;;;;;;;19.75;16.48;;;;;;;;;;5022332;28;20045;-78
2022/03/19 10:52:36;;;;;;;20.70;17.40;;;;;;;;;;5014142;28;20046;-79
2022/03/19 10:55:04;;;;;;;17.50;12.70;;;;;;;;;;5009651;28;20041;-79
2022/03/19 10:57:32;;;;;;;19.90;15.80;;;;;;;;;;5017774;28;20041;-79
2022/03/19 10:59:59;;;;;;;23.15;15.73;;;;;;;;;;5022203;28;20048;-78
2022/03/19 11:02:30;;;;;;;21.65;16.10;;;;;;;;;;5025733;28;20151;-78
2022/03/19 11:04:59;;;;;;;19.60;15.10;;;;;;;;;;5027223;28;20049;-81
2022/03/19 11:07:32;;;;;;;18.50;15.38;;;;;;;;;;5021582;28;20143;-79
2022/03/19 11:10:00;;;;;;;20.75;15.57;;;;;;;;;;5024869;28;20052;-78
2022/03/19 11:12:30;;;;;;;20.45;15.30;;;;;;;;;;5012820;28;20045;-79
2022/03/19 11:15:01;;;;;;;21.33;17.80;;;;;;;;;;5015584;28;20046;-81
2022/03/19 11:17:33;;;;;;;20.27;16.40;;;;;;;;;;5019832;28;20034;-79
2022/03/19 11:20:08;;;;;;;19.48;14.63;;;;;;;;;;5020570;28;20133;-78
2022/03/19 11:22:39;;;;;;;22.27;16.88;;;;;;;;;;5019606;28;20041;-79
2022/03/19 11:25:20;;;;;;;21.13;17.30;;;;;;;;;;5017375;28;20061;-79
2022/03/19 11:27:49;;;;;;;22.13;17.23;;;;;;;;;;5016668;28;20080;-77
2022/03/19 11:30:17;;;;;;;19.80;15.68;;;;;;;;;;5018582;28;20101;-79
2022/03/19 11:33:03;;;;;;;19.98;16.52;;;;;;;;;;5022672;28;20049;-79
2022/03/19 11:35:32;;;;;;;19.13;16.17;;;;;;;;;;5013310;28;20069;-80
2022/03/19 11:38:00;;;;;;;20.85;17.38;;;;;;;;;;5019007;22;20573;-76
2022/03/19 11:40:29;;;;;;;21.65;17.38;;;;;;;;;;5028882;28;20037;-76
2022/03/19 11:43:16;;;;;;;21.85;17.33;;;;;;;;;;5052879;28;20046;-75
2022/03/19 11:45:54;;;;;;;22.85;19.35;;;;;;;;;;5017851;28;20537;-76
2022/03/19 11:48:43;;;;;;;23.75;20.13;;;;;;;;;;5015883;28;20053;-75
2022/03/19 11:51:17;;;;;;;22.13;18.83;;;;;;;;;;5002240;28;20125;-75
2022/03/19 11:54:03;;;;;;;24.58;21.08;;;;;;;;;;4988938;28;20069;-77
2022/03/19 11:56:40;;;;;;;26.52;20.60;;;;;;;;;;5000179;28;20077;-75
2022/03/19 11:59:14;;;;;;;27.60;22.50;;;;;;;;;;5003095;28;20046;-75
2022/03/19 12:01:55;;;;;;;25.38;20.60;;;;;;;;;;5000054;28;20538;-75
2022/03/19 12:04:26;;;;;;;24.85;21.90;;;;;;;;;;5000136;28;20405;-75
2022/03/19 12:06:54;;;;;;;26.60;20.77;;;;;;;;;;5006225;28;20046;-75
2022/03/19 12:09:40;;;;;;;25.45;20.60;;;;;;;;;;5022217;28;20125;-76
2022/03/19 12:12:25;;;;;;;26.10;21.00;;;;;;;;;;4998501;28;20034;-76
2022/03/19 12:14:54;;;;;;;26.08;21.40;;;;;;;;;;5005338;28;20132;-76
2022/03/19 12:17:28;;;;;;;26.70;22.13;;;;;;;;;;5003221;28;20566;-77
2022/03/19 12:20:02;;;;;;;27.25;21.05;;;;;;;;;;4991103;28;20038;-76
2022/03/19 12:22:34;;;;;;;24.50;20.75;;;;;;;;;;4998326;28;20520;-76
2022/03/19 12:25:13;;;;;;;28.30;21.85;;;;;;;;;;5006182;28;20050;-77
2022/03/19 12:27:41;;;;;;;25.10;19.75;;;;;;;;;;5018204;28;20048;-75
2022/03/19 12:30:09;;;;;;;23.17;20.00;;;;;;;;;;5005383;28;20041;-76
2022/03/19 12:32:49;;;;;;;23.92;20.35;;;;;;;;;;4998466;28;20057;-76
2022/03/19 12:35:17;;;;;;;22.10;19.50;;;;;;;;;;5003859;28;20129;-76
2022/03/19 12:37:53;;;;;;;23.58;19.63;;;;;;;;;;5006425;28;20073;-77
2022/03/19 12:40:22;;;;;;;21.05;18.35;;;;;;;;;;5007564;28;20116;-76
2022/03/19 12:42:51;;;;;;;25.00;19.75;;;;;;;;;;4993103;28;20069;-76
2022/03/19 12:45:19;;;;;;;23.25;17.27;;;;;;;;;;5006314;28;20054;-74
2022/03/19 12:47:51;;;;;;;23.42;17.95;;;;;;;;;;4992291;28;20062;-75
2022/03/19 12:50:19;;;;;;;22.52;18.48;;;;;;;;;;4996557;28;20498;-75
2022/03/19 12:52:46;;;;;;;22.13;19.50;;;;;;;;;;5018098;28;20043;-76
2022/03/19 12:55:21;;;;;;;23.90;19.63;;;;;;;;;;5000579;28;20046;-76
2022/03/19 12:57:56;;;;;;;23.00;18.40;;;;;;;;;;4999195;28;20046;-76
2022/03/19 13:00:24;;;;;;;23.80;19.40;;;;;;;;;;4996038;28;20112;-77
2022/03/19 13:02:52;;;;;;;21.45;17.95;;;;;;;;;;5002098;28;20111;-76
2022/03/19 13:05:20;;;;;;;23.27;19.45;;;;;;;;;;5008922;28;20045;-75
2022/03/19 13:08:00;;;;;;;21.80;17.92;;;;;;;;;;5004345;28;20561;-75
2022/03/19 13:10:27;;;;;;;21.90;17.98;;;;;;;;;;5021772;28;20061;-75
2022/03/19 13:13:08;;;;;;;26.42;18.20;;;;;;;;;;5007289;28;20065;-76
2022/03/19 13:15:35;;;;;;;19.85;17.45;;;;;;;;;;5003349;28;20657;-75
2022/03/19 13:18:03;;;;;;;20.20;15.43;;;;;;;;;;5016550;28;20050;-76
2022/03/19 13:20:30;;;;;;;20.17;17.35;;;;;;;;;;5006396;28;20109;-76
2022/03/19 13:23:01;;;;;;;21.63;16.23;;;;;;;;;;5007658;28;20453;-77
2022/03/19 13:25:29;;;;;;;22.95;17.58;;;;;;;;;;4999705;28;20056;-76
2022/03/19 13:28:04;;;;;;;20.75;16.13;;;;;;;;;;5004557;28;20054;-76
2022/03/19 13:30:32;;;;;;;21.33;17.20;;;;;;;;;;5005585;28;20034;-76
2022/03/19 13:32:59;;;;;;;19.42;15.70;;;;;;;;;;5004456;28;20034;-76
2022/03/19 13:35:40;;;;;;;17.23;14.57;;;;;;;;;;5004422;28;20117;-75
2022/03/19 13:38:08;;;;;;;19.55;16.10;;;;;;;;;;5000815;28;20045;-75
2022/03/19 13:40:35;;;;;;;19.35;15.55;;;;;;;;;;5008961;28;20385;-75
2022/03/19 13:43:03;;;;;;;19.20;13.82;;;;;;;;;;4995068;28;20133;-76
2022/03/19 13:45:32;;;;;;;19.50;16.50;;;;;;;;;;4992483;28;21216;-76
2022/03/19 13:48:03;;;;;;;18.83;15.27;;;;;;;;;;5001531;28;20069;-75
2022/03/19 13:50:32;;;;;;;19.42;14.82;;;;;;;;;;5007446;28;20073;-76
2022/03/19 13:53:00;;;;;;;20.50;14.80;;;;;;;;;;4992956;28;20129;-75
2022/03/19 13:55:27;;;;;;;22.70;16.45;;;;;;;;;;5000759;28;20171;-76
2022/03/19 13:57:56;;;;;;;18.17;14.65;;;;;;;;;;4993343;28;20125;-75
2022/03/19 14:00:28;;;;;;;21.40;16.42;;;;;;;;;;5003015;28;20046;-76
2022/03/19 14:02:58;;;;;;;18.42;14.90;;;;;;;;;;5004215;28;20042;-76
2022/03/19 14:05:26;;;;;;;17.40;15.48;;;;;;;;;;4999270;28;20125;-75
2022/03/19 14:07:58;;;;;;;19.65;14.93;;;;;;;;;;5004185;28;20141;-74
2022/03/19 14:10:30;;;;;;;16.05;13.63;;;;;;;;;;4999350;28;20491;-76
2022/03/19 14:13:04;;;;;;;18.60;15.52;;;;;;;;;;4999777;28;20046;-76
2022/03/19 14:15:36;;;;;;;14.63;12.90;;;;;;;;;;5000172;28;20049;-75
2022/03/19 14:18:03;;;;;;;15.82;13.05;;;;;;;;;;4999258;28;20120;-77
2022/03/19 14:20:31;;;;;;;18.90;13.35;;;;;;;;;;5003182;28;20073;-75
2022/03/19 14:22:58;;;;;;;18.63;14.35;;;;;;;;;;5002213;28;20046;-75
2022/03/19 14:25:33;;;;;;;19.85;13.80;;;;;;;;;;4998507;28;20125;-76
2022/03/19 14:28:08;;;;;;;14.02;12.38;;;;;;;;;;4999541;28;20096;-75
2022/03/19 14:30:37;;;;;;;13.88;12.18;;;;;;;;;;5006394;28;20368;-75
2022/03/19 14:33:05;;;;;;;20.17;13.07;;;;;;;;;;5009581;28;20038;-76
2022/03/19 14:35:38;;;;;;;15.90;13.57;;;;;;;;;;5023736;28;20049;-76
2022/03/19 14:38:06;;;;;;;18.77;13.20;;;;;;;;;;5001640;28;20038;-76
2022/03/19 14:40:33;;;;;;;17.60;13.32;;;;;;;;;;4989347;28;20042;-76
2022/03/19 14:43:02;;;;;;;16.50;13.38;;;;;;;;;;5002093;28;20049;-76
2022/03/19 14:45:30;;;;;;;16.17;14.07;;;;;;;;;;4995636;28;20166;-75